Time;durP1;ratioP1;P1;durP2;ratioP2;P2;SDS_P1;SDS_P2;PMS_P1;PMS_P2;Temp;Humidity;BMP_temperature;BMP_pressure;BME280_temperature;BME280_humidity;BME280_pressure;Samples;Min_cycle;Max_cycle;Signal;HPM_P1;HPM_P2
2022/11/13 00:00:58;;;;;;;18.63;11.37;;;11.70;64.50;;;;;;5070562;28;20469;-89
2022/11/13 00:03:43;;;;;;;20.30;12.43;;;11.60;64.50;;;;;;5101343;28;20477;-89
2022/11/13 00:06:29;;;;;;;17.70;11.80;;;11.80;64.30;;;;;;5097190;28;21140;-88
2022/11/13 00:09:16;;;;;;;20.33;12.70;;;12.00;63.80;;;;;;5060570;28;21142;-88
2022/11/13 00:12:03;;;;;;;19.57;11.47;;;11.90;63.50;;;;;;5089961;28;20446;-90
2022/11/13 00:14:48;;;;;;;15.40;11.30;;;11.90;63.60;;;;;;5086962;28;20466;-90
2022/11/13 00:17:34;;;;;;;16.20;11.20;;;11.80;63.80;;;;;;5082985;28;20436;-88
2022/11/13 00:20:20;;;;;;;16.10;10.57;;;11.90;63.70;;;;;;5087000;28;20491;-92
2022/11/13 00:23:05;;;;;;;13.10;9.43;;;12.10;63.10;;;;;;5097348;28;20467;-91
2022/11/13 00:25:50;;;;;;;14.17;9.40;;;12.10;62.50;;;;;;5084269;28;20442;-88
2022/11/13 00:28:37;;;;;;;15.27;10.43;;;12.10;62.10;;;;;;5082720;28;20434;-90
2022/11/13 00:31:23;;;;;;;16.00;10.90;;;12.20;62.00;;;;;;5085980;28;20511;-88
2022/11/13 00:34:10;;;;;;;16.90;9.97;;;11.90;62.10;;;;;;5101296;28;20470;-88
2022/11/13 00:36:55;;;;;;;12.63;9.80;;;12.00;62.40;;;;;;5084071;28;20423;-87
2022/11/13 00:39:41;;;;;;;16.13;10.50;;;12.10;62.20;;;;;;5072648;28;20439;-88
2022/11/13 00:42:27;;;;;;;23.60;9.53;;;11.80;62.80;;;;;;5067895;28;20467;-87
2022/11/13 00:45:14;;;;;;;20.57;10.70;;;11.60;63.10;;;;;;5081443;28;20530;-90
2022/11/13 00:47:59;;;;;;;18.70;11.97;;;11.20;64.90;;;;;;5076788;28;20444;-88
2022/11/13 00:50:46;;;;;;;17.80;10.70;;;11.40;65.40;;;;;;5087783;28;20465;-88
2022/11/13 00:53:32;;;;;;;13.67;9.57;;;11.80;64.70;;;;;;5079517;28;20573;-88
2022/11/13 00:56:17;;;;;;;13.40;9.67;;;12.00;64.40;;;;;;5083390;28;20450;-91
2022/11/13 00:59:03;;;;;;;14.70;9.57;;;12.10;62.60;;;;;;5079528;28;21330;-90
2022/11/13 01:01:50;;;;;;;13.30;9.67;;;12.20;62.40;;;;;;5083110;28;22177;-88
2022/11/13 01:04:35;;;;;;;13.10;8.93;;;12.30;61.90;;;;;;5082967;28;20550;-89
2022/11/13 01:07:21;;;;;;;13.50;10.00;;;12.10;61.80;;;;;;5087336;28;20490;-89
2022/11/13 01:10:08;;;;;;;15.53;9.90;;;12.00;62.40;;;;;;5081995;28;21061;-89
2022/11/13 01:12:53;;;;;;;14.40;9.50;;;11.80;62.30;;;;;;5101504;28;20497;-89
2022/11/13 01:15:39;;;;;;;19.00;8.73;;;11.60;63.50;;;;;;5084584;28;20518;-89
2022/11/13 01:18:26;;;;;;;20.50;10.43;;;11.30;64.10;;;;;;5073706;28;20457;-88
2022/11/13 01:21:15;;;;;;;19.70;10.57;;;10.90;64.70;;;;;;5083968;28;20448;-90
2022/11/13 01:24:01;;;;;;;22.40;9.43;;;10.90;65.10;;;;;;5070782;28;20463;-90
2022/11/13 01:26:47;;;;;;;13.63;9.73;;;11.00;64.90;;;;;;5070233;28;20435;-92
2022/11/13 01:29:32;;;;;;;16.27;9.63;;;11.20;64.70;;;;;;5081925;28;20459;-90
2022/11/13 01:32:18;;;;;;;16.37;9.20;;;11.20;64.30;;;;;;5084291;28;20435;-89
2022/11/13 01:35:06;;;;;;;11.67;8.37;;;11.30;64.20;;;;;;5101753;27;20530;-89
2022/11/13 01:37:51;;;;;;;12.20;8.23;;;11.40;63.30;;;;;;5085833;28;20443;-91
2022/11/13 01:40:45;;;;;;;11.83;8.07;;;11.50;62.60;;;;;;5081845;28;20485;-88
2022/11/13 01:43:32;;;;;;;11.43;8.60;;;11.50;62.30;;;;;;5074048;28;20467;-90
2022/11/13 01:46:24;;;;;;;12.53;8.43;;;11.50;61.60;;;;;;5081906;28;20451;-89
2022/11/13 01:49:25;;;;;;;13.77;8.20;;;11.20;62.10;;;;;;5062760;28;20448;-89
2022/11/13 01:52:15;;;;;;;12.47;8.10;;;11.30;62.60;;;;;;5086139;28;20446;-90
2022/11/13 01:55:05;;;;;;;15.60;9.33;;;11.30;62.00;;;;;;5099542;28;20471;-90
2022/11/13 01:57:51;;;;;;;16.73;8.90;;;11.10;62.60;;;;;;5103610;28;20498;-89
2022/11/13 02:00:36;;;;;;;16.07;10.53;;;11.20;62.50;;;;;;5099787;28;20442;-88
2022/11/13 02:03:22;;;;;;;12.13;8.47;;;11.40;62.10;;;;;;5099187;28;20586;-90
2022/11/13 02:06:08;;;;;;;12.87;8.57;;;11.40;62.10;;;;;;5098958;28;20451;-89
2022/11/13 02:08:56;;;;;;;14.37;9.73;;;11.50;61.70;;;;;;5095275;28;20442;-88
2022/11/13 02:11:42;;;;;;;12.43;8.50;;;11.50;61.40;;;;;;5078753;28;20806;-90
2022/11/13 02:14:29;;;;;;;12.37;8.83;;;11.40;61.50;;;;;;5099271;28;20506;-89
2022/11/13 02:17:18;;;;;;;14.90;8.23;;;11.30;61.40;;;;;;5104667;28;20447;-90
2022/11/13 02:20:06;;;;;;;11.30;7.23;;;11.10;61.40;;;;;;5100586;28;20446;-88
2022/11/13 02:22:57;;;;;;;12.30;7.90;;;11.10;61.70;;;;;;5095851;28;20581;-92
2022/11/13 02:25:47;;;;;;;10.70;6.73;;;11.30;61.60;;;;;;5106842;28;20451;-90
2022/11/13 02:28:33;;;;;;;11.27;7.33;;;11.40;61.20;;;;;;5105674;28;20443;-89
2022/11/13 02:31:18;;;;;;;13.30;8.13;;;11.50;61.00;;;;;;5104383;28;20538;-89
2022/11/13 02:34:04;;;;;;;15.47;8.90;;;11.30;61.00;;;;;;5108072;28;20474;-91
2022/11/13 02:36:50;;;;;;;9.90;6.90;;;11.20;60.90;;;;;;5091844;28;21188;-91
2022/11/13 02:39:36;;;;;;;12.57;7.87;;;11.20;61.80;;;;;;5083334;28;20471;-89
2022/11/13 02:42:23;;;;;;;13.40;8.17;;;11.20;61.20;;;;;;5090113;28;21100;-89
2022/11/13 02:45:11;;;;;;;14.90;7.90;;;11.00;62.10;;;;;;5099973;28;20439;-88
2022/11/13 02:47:59;;;;;;;10.03;6.90;;;11.20;61.80;;;;;;5102642;28;20442;-89
2022/11/13 02:50:46;;;;;;;16.53;7.10;;;11.20;61.60;;;;;;5103732;28;20496;-90
2022/11/13 02:53:32;;;;;;;11.87;7.60;;;11.30;61.20;;;;;;5117600;27;20487;-88
2022/11/13 02:56:18;;;;;;;14.70;8.97;;;11.40;60.90;;;;;;5102441;28;20471;-88
2022/11/13 02:59:05;;;;;;;20.13;8.53;;;11.30;60.80;;;;;;5101407;28;21255;-88
2022/11/13 03:01:51;;;;;;;14.37;6.60;;;11.00;61.70;;;;;;5099874;28;20469;-88
2022/11/13 03:04:36;;;;;;;14.23;7.77;;;11.20;61.40;;;;;;5089277;28;21011;-88
2022/11/13 03:07:22;;;;;;;18.07;7.80;;;11.30;61.30;;;;;;5106912;28;20930;-89
2022/11/13 03:10:10;;;;;;;18.30;6.83;;;11.30;60.90;;;;;;5084089;28;20454;-90
2022/11/13 03:12:55;;;;;;;14.10;7.10;;;11.10;61.10;;;;;;5105120;28;20541;-86
2022/11/13 03:15:42;;;;;;;21.40;7.63;;;11.20;60.60;;;;;;5103779;28;20447;-88
2022/11/13 03:18:29;;;;;;;44.63;9.57;;;11.10;60.60;;;;;;5106354;28;20961;-92
2022/11/13 03:21:15;;;;;;;13.63;7.00;;;10.90;60.30;;;;;;5103838;28;20454;-92
2022/11/13 03:24:01;;;;;;;15.33;7.90;;;10.80;60.90;;;;;;5101987;28;20471;-88
2022/11/13 03:26:47;;;;;;;10.30;7.30;;;10.60;60.80;;;;;;5090753;28;20435;-89
2022/11/13 03:29:32;;;;;;;17.37;7.67;;;10.50;61.90;;;;;;5104125;28;20436;-88
2022/11/13 03:32:20;;;;;;;20.20;8.00;;;10.50;62.20;;;;;;5106429;28;20458;-88
2022/11/13 03:35:06;;;;;;;12.77;7.80;;;10.60;61.30;;;;;;5086022;28;20517;-90
2022/11/13 03:37:51;;;;;;;19.00;8.30;;;10.80;61.20;;;;;;5100690;28;20452;-89
2022/11/13 03:40:37;;;;;;;26.17;7.00;;;10.60;60.80;;;;;;5101150;28;20443;-89
2022/11/13 03:43:24;;;;;;;13.23;7.93;;;10.40;61.40;;;;;;5090612;28;20481;-90
2022/11/13 03:46:10;;;;;;;21.53;6.80;;;10.20;62.00;;;;;;5107559;28;20481;-89
2022/11/13 03:48:56;;;;;;;13.13;7.27;;;10.50;61.60;;;;;;5101154;28;20477;-88
2022/11/13 03:51:42;;;;;;;9.20;6.40;;;10.70;60.90;;;;;;5100524;28;20491;-89
2022/11/13 03:54:27;;;;;;;23.00;8.10;;;10.80;60.20;;;;;;5088893;28;20467;-90
2022/11/13 03:57:13;;;;;;;15.13;8.13;;;10.70;60.20;;;;;;5106083;28;20531;-88
2022/11/13 03:59:58;;;;;;;13.23;6.90;;;10.60;60.80;;;;;;5101125;28;20525;-88
2022/11/13 04:02:44;;;;;;;11.10;6.47;;;10.60;61.10;;;;;;5100809;28;21040;-92
2022/11/13 04:05:31;;;;;;;12.27;7.50;;;10.40;60.70;;;;;;5089586;28;20478;-88
2022/11/13 04:08:17;;;;;;;18.93;7.83;;;10.40;61.30;;;;;;5105570;28;20475;-91
2022/11/13 04:11:07;;;;;;;12.90;8.03;;;10.50;61.10;;;;;;5088114;28;20434;-89
2022/11/13 04:13:53;;;;;;;25.87;8.40;;;10.50;61.40;;;;;;5099917;28;20610;-91
2022/11/13 04:16:38;;;;;;;18.97;7.10;;;10.50;61.00;;;;;;5091271;28;20435;-89
2022/11/13 04:19:24;;;;;;;17.37;8.30;;;10.40;60.80;;;;;;5098285;28;21028;-90
2022/11/13 04:22:11;;;;;;;12.80;7.60;;;10.30;61.30;;;;;;5086450;28;20435;-87
2022/11/13 04:24:57;;;;;;;27.17;8.13;;;10.10;61.90;;;;;;5108506;28;20453;-89
2022/11/13 04:27:43;;;;;;;22.80;8.30;;;10.00;61.50;;;;;;5096718;28;20439;-88
2022/11/13 04:30:28;;;;;;;14.77;6.43;;;9.90;62.70;;;;;;5087062;28;21137;-88
2022/11/13 04:33:14;;;;;;;27.93;7.57;;;9.90;63.20;;;;;;5089352;28;20482;-89
2022/11/13 04:35:59;;;;;;;18.23;6.77;;;9.90;63.10;;;;;;5101263;28;20447;-87
2022/11/13 04:38:46;;;;;;;14.03;7.60;;;10.00;61.90;;;;;;5100739;28;20442;-89
2022/11/13 04:44:38;;;;;;;23.23;8.00;;;10.40;60.90;;;;;;5100701;28;20817;-91
2022/11/13 04:47:24;;;;;;;20.00;7.90;;;10.70;60.30;;;;;;5087276;28;20530;-91
2022/11/13 04:50:11;;;;;;;23.73;6.70;;;10.60;60.00;;;;;;5100428;28;20491;-91
2022/11/13 04:52:56;;;;;;;28.53;8.40;;;10.20;60.90;;;;;;5091295;28;20536;-92
2022/11/13 04:55:43;;;;;;;17.33;7.50;;;10.10;61.30;;;;;;5104508;28;20914;-90
2022/11/13 04:58:29;;;;;;;13.80;7.50;;;10.10;61.70;;;;;;5095692;28;20455;-88
2022/11/13 05:01:15;;;;;;;13.23;7.47;;;10.30;61.50;;;;;;5082131;28;20824;-90
2022/11/13 05:04:01;;;;;;;128.37;12.43;;;10.30;61.50;;;;;;5102629;28;20513;-88
2022/11/13 05:06:46;;;;;;;24.50;8.87;;;10.50;60.90;;;;;;5085040;28;20444;-89
2022/11/13 05:09:32;;;;;;;12.27;7.20;;;10.40;60.40;;;;;;5099986;28;20930;-92
2022/11/13 05:12:19;;;;;;;24.97;7.80;;;10.40;60.60;;;;;;5087374;28;20479;-92
2022/11/13 05:15:06;;;;;;;15.20;7.27;;;10.50;59.90;;;;;;5081489;28;20431;-89
2022/11/13 05:17:53;;;;;;;20.00;7.23;;;10.40;60.10;;;;;;5088855;28;20430;-89
2022/11/13 05:20:39;;;;;;;19.13;6.50;;;10.30;60.20;;;;;;5094529;28;20817;-89
2022/11/13 05:23:25;;;;;;;13.93;6.70;;;10.30;60.00;;;;;;5097214;28;20505;-90
2022/11/13 05:26:12;;;;;;;12.87;7.70;;;10.20;61.10;;;;;;5087310;28;20440;-89
2022/11/13 05:29:00;;;;;;;13.33;7.03;;;10.40;59.90;;;;;;5102803;28;20453;-89
2022/11/13 05:31:46;;;;;;;19.23;7.00;;;10.50;59.70;;;;;;5103851;28;20451;-88
2022/11/13 05:34:32;;;;;;;18.83;6.77;;;10.20;59.90;;;;;;5102477;28;20463;-89
2022/11/13 05:37:17;;;;;;;17.07;7.23;;;10.20;60.20;;;;;;5088856;28;20557;-90
2022/11/13 05:40:03;;;;;;;18.30;6.70;;;10.20;60.80;;;;;;5094799;28;20460;-89
2022/11/13 05:42:49;;;;;;;15.70;5.80;;;10.30;60.00;;;;;;5083933;28;20469;-91
2022/11/13 05:45:36;;;;;;;32.10;6.80;;;10.30;59.80;;;;;;5098576;28;20533;-88
2022/11/13 05:48:22;;;;;;;21.40;6.60;;;9.90;61.30;;;;;;5086326;28;20824;-88
2022/11/13 05:51:10;;;;;;;16.30;7.87;;;9.90;62.20;;;;;;5100921;28;20482;-89
2022/11/13 05:53:56;;;;;;;30.30;8.23;;;9.90;62.50;;;;;;5086898;28;20466;-91
2022/11/13 05:56:42;;;;;;;27.40;7.47;;;9.70;62.80;;;;;;5096770;28;20438;-91
2022/11/13 05:59:27;;;;;;;37.93;8.10;;;9.90;63.10;;;;;;5099244;28;20439;-89
2022/11/13 06:02:14;;;;;;;23.23;8.00;;;9.90;62.00;;;;;;5101538;28;20444;-88
2022/11/13 06:04:59;;;;;;;19.43;6.90;;;9.90;62.00;;;;;;5088704;28;20527;-88
2022/11/13 06:07:45;;;;;;;42.00;9.87;;;9.80;62.30;;;;;;5101702;28;20451;-89
2022/11/13 06:10:30;;;;;;;35.67;7.77;;;9.60;62.10;;;;;;5086364;28;20820;-91
2022/11/13 06:13:16;;;;;;;32.73;8.20;;;9.50;62.60;;;;;;5081464;28;20463;-87
2022/11/13 06:16:04;;;;;;;39.57;7.70;;;9.70;62.10;;;;;;5102915;28;20473;-89
2022/11/13 06:18:54;;;;;;;9.90;7.20;;;9.70;61.20;;;;;;5101085;28;20484;-90
2022/11/13 06:21:41;;;;;;;24.67;7.67;;;9.80;61.60;;;;;;5095481;28;20448;-92
2022/11/13 06:24:26;;;;;;;9.37;6.93;;;9.70;61.20;;;;;;5100070;28;20513;-87
2022/11/13 06:27:11;;;;;;;7.63;6.43;;;9.60;61.90;;;;;;5087765;28;21061;-89
2022/11/13 06:29:57;;;;;;;28.73;6.30;;;9.50;62.30;;;;;;5099555;28;20529;-89
2022/11/13 06:32:43;;;;;;;37.93;8.03;;;9.50;61.90;;;;;;5100145;28;20466;-89
2022/11/13 06:35:30;;;;;;;12.53;6.87;;;9.50;62.20;;;;;;5098981;28;20827;-90
2022/11/13 06:38:16;;;;;;;18.10;7.20;;;9.50;62.00;;;;;;5102980;28;20468;-89
2022/11/13 06:41:03;;;;;;;20.13;8.97;;;9.30;62.10;;;;;;5097081;28;20443;-90
2022/11/13 06:43:49;;;;;;;9.77;6.83;;;9.10;63.80;;;;;;5088009;28;20861;-88
2022/11/13 06:46:34;;;;;;;13.70;7.40;;;9.20;63.70;;;;;;5097511;28;20488;-90
2022/11/13 06:49:20;;;;;;;16.00;8.13;;;9.20;62.80;;;;;;5087016;28;20446;-87
2022/11/13 06:52:07;;;;;;;11.93;5.80;;;9.20;63.40;;;;;;5101723;28;20447;-89
2022/11/13 06:54:53;;;;;;;66.13;10.10;;;9.40;63.00;;;;;;5099420;28;20478;-89
2022/11/13 06:57:38;;;;;;;28.80;7.90;;;9.50;62.40;;;;;;5098739;28;20442;-89
2022/11/13 07:00:25;;;;;;;34.43;7.53;;;9.50;61.70;;;;;;5097048;28;20454;-89
2022/11/13 07:03:16;;;;;;;23.43;7.57;;;9.60;62.00;;;;;;5101085;28;20519;-88
2022/11/13 07:06:03;;;;;;;20.30;7.93;;;9.50;62.30;;;;;;5084075;28;20439;-89
2022/11/13 07:08:50;;;;;;;20.23;7.67;;;9.70;61.80;;;;;;5084504;28;21135;-91
2022/11/13 07:11:36;;;;;;;19.87;7.40;;;9.90;60.60;;;;;;5103803;28;20446;-89
2022/11/13 07:14:22;;;;;;;15.37;8.33;;;10.00;59.10;;;;;;5106314;28;20469;-91
2022/11/13 07:17:07;;;;;;;51.23;7.93;;;10.00;59.60;;;;;;5092886;28;20442;-90
2022/11/13 07:19:57;;;;;;;17.10;7.17;;;9.70;60.80;;;;;;5094154;28;20442;-91
2022/11/13 07:22:43;;;;;;;25.50;7.53;;;9.50;61.50;;;;;;5092051;28;21025;-90
2022/11/13 07:25:33;;;;;;;25.13;7.60;;;9.40;62.10;;;;;;5110340;28;21164;-94
2022/11/13 07:28:22;;;;;;;12.73;6.00;;;8.90;62.70;;;;;;5109735;28;20489;-90
2022/11/13 07:31:08;;;;;;;15.87;7.00;;;8.70;63.50;;;;;;5091831;28;20971;-90
2022/11/13 07:33:54;;;;;;;12.57;7.07;;;8.70;64.00;;;;;;5083919;28;20456;-92
2022/11/13 07:36:40;;;;;;;8.00;6.37;;;8.80;63.30;;;;;;5089858;28;20442;-90
2022/11/13 07:39:26;;;;;;;8.60;6.00;;;8.80;62.90;;;;;;5089418;28;20446;-90
2022/11/13 07:42:14;;;;;;;6.17;5.23;;;8.80;61.70;;;;;;5088930;28;20442;-90
2022/11/13 07:44:59;;;;;;;6.13;4.87;;;8.80;61.90;;;;;;5071804;28;20465;-91
2022/11/13 07:47:45;;;;;;;10.53;4.90;;;8.70;62.00;;;;;;5079518;28;20459;-90
2022/11/13 07:50:32;;;;;;;5.97;5.10;;;8.20;62.80;;;;;;5087529;28;20573;-90
2022/11/13 07:53:19;;;;;;;5.17;4.67;;;8.50;63.40;;;;;;5084187;28;20454;-88
2022/11/13 07:56:06;;;;;;;10.77;6.70;;;8.50;62.60;;;;;;5065289;28;20544;-88
2022/11/13 07:58:53;;;;;;;8.90;6.57;;;8.30;63.50;;;;;;5085513;28;20817;-93
2022/11/13 08:01:39;;;;;;;12.90;8.70;;;8.70;63.50;;;;;;5106433;28;20943;-90
2022/11/13 08:04:25;;;;;;;13.07;6.53;;;9.10;62.50;;;;;;5070604;28;20463;-90
2022/11/13 08:07:12;;;;;;;78.87;25.30;;;9.40;60.80;;;;;;5102043;28;20449;-90
2022/11/13 08:09:58;;;;;;;18.83;10.17;;;8.50;61.70;;;;;;5073757;28;20453;-89
2022/11/13 08:12:43;;;;;;;10.20;6.60;;;8.20;64.00;;;;;;5069871;28;20443;-89
2022/11/13 08:15:32;;;;;;;14.57;6.57;;;8.70;64.10;;;;;;5073140;28;20474;-92
2022/11/13 08:18:18;;;;;;;70.57;8.70;;;9.10;62.70;;;;;;5074863;28;20446;-88
2022/11/13 08:21:05;;;;;;;10.63;7.40;;;9.20;60.60;;;;;;5067440;28;21252;-87
2022/11/13 08:23:51;;;;;;;43.20;7.40;;;8.80;62.30;;;;;;5062069;28;20474;-86
2022/11/13 08:26:38;;;;;;;5.20;3.90;;;8.70;62.90;;;;;;5087397;28;20439;-88
2022/11/13 08:29:23;;;;;;;60.60;17.67;;;8.50;62.10;;;;;;5081014;28;20472;-89
2022/11/13 08:32:14;;;;;;;12.60;7.10;;;8.00;63.80;;;;;;5074438;28;20474;-88
2022/11/13 08:35:00;;;;;;;13.50;7.10;;;8.40;63.90;;;;;;5072760;28;20439;-89
2022/11/13 08:37:46;;;;;;;10.03;7.40;;;8.60;63.90;;;;;;5078280;28;20442;-91
2022/11/13 08:40:32;;;;;;;14.10;11.00;;;8.60;63.50;;;;;;5081633;28;20444;-91
2022/11/13 08:43:18;;;;;;;11.73;6.73;;;8.60;63.80;;;;;;5101291;28;20927;-88
2022/11/13 08:46:03;;;;;;;17.00;6.90;;;8.70;63.00;;;;;;5081021;28;21193;-86
2022/11/13 08:48:50;;;;;;;28.83;11.13;;;8.80;62.00;;;;;;5102012;28;20463;-87
2022/11/13 08:51:36;;;;;;;10.30;7.70;;;8.80;63.10;;;;;;5105793;28;20789;-88
2022/11/13 08:54:21;;;;;;;8.43;6.50;;;9.30;62.70;;;;;;5071374;28;20519;-90
2022/11/13 08:57:10;;;;;;;14.87;7.23;;;9.40;61.40;;;;;;5088938;28;20459;-90
2022/11/13 08:59:56;;;;;;;10.63;6.73;;;9.50;60.70;;;;;;5106535;28;20946;-88
2022/11/13 09:02:41;;;;;;;10.03;6.70;;;9.40;61.50;;;;;;5073807;28;20995;-87
2022/11/13 09:05:28;;;;;;;11.20;7.50;;;9.30;61.60;;;;;;5087652;28;20492;-90
2022/11/13 09:08:14;;;;;;;12.60;7.73;;;9.20;61.80;;;;;;5081758;28;20447;-90
2022/11/13 09:11:03;;;;;;;9.10;7.00;;;9.30;62.50;;;;;;5102033;28;20443;-90
2022/11/13 09:13:49;;;;;;;17.27;8.80;;;9.10;62.70;;;;;;5090119;28;20467;-90
2022/11/13 09:16:35;;;;;;;45.87;21.93;;;9.00;64.10;;;;;;5107165;28;20437;-90
2022/11/13 09:19:21;;;;;;;12.50;8.60;;;9.20;63.10;;;;;;5082241;28;20837;-89
2022/11/13 09:22:08;;;;;;;13.43;8.63;;;9.40;63.50;;;;;;5056931;28;20454;-88
2022/11/13 09:24:53;;;;;;;15.20;9.87;;;9.50;62.40;;;;;;5090275;28;20511;-90
2022/11/13 09:27:39;;;;;;;13.80;9.43;;;9.30;62.80;;;;;;5082277;28;20466;-90
2022/11/13 09:30:26;;;;;;;12.33;8.63;;;9.10;63.30;;;;;;5087005;28;20450;-91
2022/11/13 09:33:14;;;;;;;16.97;10.30;;;8.90;63.70;;;;;;5069421;28;20459;-90
2022/11/13 09:36:00;;;;;;;21.80;10.60;;;9.00;64.30;;;;;;5087406;28;20446;-93
2022/11/13 09:38:46;;;;;;;15.80;9.17;;;9.40;63.30;;;;;;5070212;28;20443;-90
2022/11/13 09:41:37;;;;;;;15.30;9.73;;;9.70;62.70;;;;;;5069893;28;20458;-89
2022/11/13 09:44:31;;;;;;;18.23;9.30;;;9.60;63.10;;;;;;5070103;28;20466;-91
2022/11/13 09:47:21;;;;;;;19.93;10.20;;;9.90;62.40;;;;;;5083691;28;20449;-91
2022/11/13 09:50:15;;;;;;;20.13;11.90;;;9.90;62.60;;;;;;5068283;28;20562;-92
2022/11/13 09:53:01;;;;;;;23.00;13.53;;;9.70;62.30;;;;;;5095605;28;20509;-88
2022/11/13 09:55:57;;;;;;;22.77;11.70;;;9.20;64.50;;;;;;5080365;28;20428;-87
2022/11/13 09:58:48;;;;;;;25.83;11.03;;;9.10;64.70;;;;;;5077775;28;20523;-89
2022/11/13 10:01:42;;;;;;;84.83;14.37;;;9.10;64.90;;;;;;5064279;28;20817;-88
2022/11/13 10:04:47;;;;;;;17.27;10.60;;;9.60;63.80;;;;;;5076121;28;20610;-87
2022/11/13 10:07:41;;;;;;;22.60;10.20;;;10.00;61.90;;;;;;5067434;28;20965;-88
2022/11/13 10:10:42;;;;;;;33.50;10.83;;;10.10;61.20;;;;;;5059971;28;20427;-89
2022/11/13 10:13:34;;;;;;;17.10;11.93;;;9.70;62.30;;;;;;5064852;28;20455;-88
2022/11/13 10:16:32;;;;;;;16.83;10.10;;;9.70;65.10;;;;;;5065941;28;20478;-89
2022/11/13 10:19:25;;;;;;;18.20;11.50;;;9.70;63.40;;;;;;5104435;28;20450;-89
2022/11/13 10:22:16;;;;;;;16.07;8.87;;;10.00;62.50;;;;;;5078076;28;20449;-88
2022/11/13 10:25:20;;;;;;;21.93;9.93;;;10.30;61.20;;;;;;5100372;28;20662;-92
2022/11/13 10:28:13;;;;;;;16.33;10.23;;;10.50;60.50;;;;;;5059561;28;20478;-88
2022/11/13 10:31:00;;;;;;;39.40;26.60;;;10.40;61.30;;;;;;5062108;28;20458;-88
2022/11/13 10:33:45;;;;;;;21.20;13.10;;;10.70;60.80;;;;;;5104064;28;20494;-90
2022/11/13 10:36:38;;;;;;;22.10;15.33;;;10.80;60.60;;;;;;5066477;28;20451;-93
2022/11/13 10:39:24;;;;;;;25.23;17.80;;;10.80;60.80;;;;;;5048205;28;20546;-93
2022/11/13 10:42:23;;;;;;;16.50;11.40;;;10.80;61.30;;;;;;5083809;28;20540;-90
2022/11/13 10:45:16;;;;;;;25.17;16.30;;;10.90;61.70;;;;;;5098998;28;20470;-91
2022/11/13 10:48:03;;;;;;;25.27;15.50;;;10.70;62.40;;;;;;5083372;28;20447;-90
2022/11/13 10:50:57;;;;;;;17.77;11.93;;;10.60;63.00;;;;;;5101597;28;20442;-89
2022/11/13 10:53:43;;;;;;;13.67;8.23;;;10.40;63.90;;;;;;5106722;28;20469;-90
2022/11/13 10:56:31;;;;;;;11.20;8.63;;;10.70;63.20;;;;;;5107886;28;20484;-90
2022/11/13 10:59:18;;;;;;;11.87;8.33;;;11.00;63.20;;;;;;5087277;28;20448;-91
2022/11/13 11:02:15;;;;;;;12.40;8.50;;;11.00;62.40;;;;;;5089256;28;20438;-90
2022/11/13 11:05:04;;;;;;;14.13;9.80;;;10.90;62.30;;;;;;5087375;28;20503;-92
2022/11/13 11:07:50;;;;;;;14.83;8.97;;;10.80;62.80;;;;;;5109585;28;20824;-91
2022/11/13 11:12:14;;;;;;;14.07;8.90;;;10.90;62.60;;;;;;5100643;28;20966;-91
2022/11/13 11:13:42;;;;;;;9.77;7.57;;;11.20;62.00;;;;;;5105856;28;20506;-90
2022/11/13 11:16:28;;;;;;;14.50;8.87;;;11.50;61.70;;;;;;5107432;28;20543;-91
2022/11/13 11:19:16;;;;;;;15.60;10.60;;;11.40;61.50;;;;;;5100829;28;20443;-90
2022/11/13 11:22:09;;;;;;;14.03;9.57;;;11.30;61.70;;;;;;5121119;27;20471;-90
2022/11/13 11:24:58;;;;;;;19.60;10.73;;;11.40;61.40;;;;;;5099290;28;20471;-89
2022/11/13 11:27:49;;;;;;;13.53;8.90;;;11.50;61.30;;;;;;5100800;28;20443;-90
2022/11/13 11:30:42;;;;;;;11.83;8.50;;;11.60;61.50;;;;;;5101904;28;20454;-90
2022/11/13 11:33:34;;;;;;;19.00;10.20;;;11.50;62.50;;;;;;5102588;28;20547;-90
2022/11/13 11:36:28;;;;;;;14.73;9.97;;;11.70;62.00;;;;;;5107406;28;20443;-90
2022/11/13 11:39:28;;;;;;;12.23;8.30;;;12.10;61.20;;;;;;5090223;28;20469;-90
2022/11/13 11:42:22;;;;;;;11.20;8.30;;;12.30;59.80;;;;;;5087642;28;20447;-90
2022/11/13 11:45:16;;;;;;;10.20;7.90;;;12.00;60.70;;;;;;5101868;28;20503;-90
2022/11/13 11:48:05;;;;;;;11.70;8.10;;;12.30;60.70;;;;;;5100824;28;20443;-91
2022/11/13 11:50:57;;;;;;;11.30;7.93;;;12.80;60.00;;;;;;5102997;28;21131;-90
2022/11/13 11:53:52;;;;;;;11.00;7.80;;;13.10;58.90;;;;;;5100440;28;20486;-90
2022/11/13 11:56:45;;;;;;;9.70;7.40;;;13.30;57.90;;;;;;5104866;28;20454;-90
2022/11/13 11:59:55;;;;;;;7.23;6.53;;;13.50;58.10;;;;;;5082239;28;20440;-91
2022/11/13 12:03:12;;;;;;;10.23;7.50;;;13.90;57.60;;;;;;5109805;28;20443;-90
2022/11/13 12:06:07;;;;;;;9.70;6.47;;;14.20;56.40;;;;;;5076800;28;20471;-90
2022/11/13 12:09:01;;;;;;;9.80;7.00;;;14.20;56.60;;;;;;5102513;28;20526;-90
2022/11/13 12:11:54;;;;;;;8.77;6.23;;;14.60;56.90;;;;;;5091731;28;20524;-92
2022/11/13 12:14:54;;;;;;;9.20;6.60;;;14.90;55.50;;;;;;5105118;28;20477;-90
2022/11/13 12:17:50;;;;;;;10.50;8.20;;;15.10;55.70;;;;;;5102094;28;20447;-89
2022/11/13 12:20:43;;;;;;;11.10;8.17;;;15.50;54.90;;;;;;5099892;28;20512;-90
2022/11/13 12:23:40;;;;;;;8.67;6.63;;;15.70;54.10;;;;;;5107147;28;20554;-90
2022/11/13 12:26:29;;;;;;;11.57;9.63;;;15.70;54.50;;;;;;5106556;28;20518;-90
2022/11/13 12:29:29;;;;;;;7.53;6.53;;;15.90;54.10;;;;;;5086887;28;20811;-91
2022/11/13 12:32:29;;;;;;;7.40;6.63;;;16.00;54.00;;;;;;5101542;28;20808;-90
2022/11/13 12:35:18;;;;;;;10.80;7.47;;;16.20;54.00;;;;;;5101151;28;21106;-88
2022/11/13 12:38:11;;;;;;;8.67;7.00;;;16.40;53.90;;;;;;5102403;28;20440;-90
2022/11/13 12:41:03;;;;;;;10.00;7.40;;;16.60;53.70;;;;;;5089844;28;20938;-89
2022/11/13 12:44:03;;;;;;;12.60;7.00;;;16.60;53.40;;;;;;5091468;28;20509;-88
2022/11/13 12:46:51;;;;;;;9.70;7.03;;;16.50;54.10;;;;;;5103158;28;20966;-89
2022/11/13 12:49:37;;;;;;;14.73;7.80;;;16.70;54.20;;;;;;5090704;28;20475;-89
2022/11/13 12:52:23;;;;;;;8.23;6.43;;;16.80;53.90;;;;;;5098844;28;20482;-90
2022/11/13 12:55:25;;;;;;;8.03;6.73;;;17.00;53.50;;;;;;5100987;28;21072;-90
2022/11/13 12:58:20;;;;;;;12.47;8.70;;;17.10;52.70;;;;;;5098307;28;20443;-90
2022/11/13 13:01:17;;;;;;;11.33;8.53;;;16.80;53.40;;;;;;5104395;28;20443;-89
2022/11/13 13:04:34;;;;;;;30.40;16.23;;;17.00;53.10;;;;;;5088742;28;20498;-91
2022/11/13 13:07:38;;;;;;;50.37;25.43;;;16.90;52.60;;;;;;5088901;28;20432;-90
2022/11/13 13:10:31;;;;;;;43.53;21.43;;;16.80;53.20;;;;;;5095142;28;20447;-90
2022/11/13 13:13:22;;;;;;;15.93;10.57;;;17.00;53.30;;;;;;5094606;28;20463;-88
2022/11/13 13:16:09;;;;;;;39.00;20.63;;;17.20;53.00;;;;;;5096425;28;20529;-89
2022/11/13 13:19:08;;;;;;;37.07;19.57;;;17.20;52.90;;;;;;5084551;28;20449;-89
2022/11/13 13:21:54;;;;;;;18.23;13.93;;;17.30;53.00;;;;;;5103351;28;20443;-90
2022/11/13 13:24:40;;;;;;;15.47;8.77;;;17.20;52.40;;;;;;5100645;28;20532;-88
2022/11/13 13:27:28;;;;;;;8.83;7.40;;;17.10;52.80;;;;;;5096584;28;21109;-90
2022/11/13 13:30:19;;;;;;;10.27;6.77;;;17.20;52.90;;;;;;5101044;28;20515;-89
2022/11/13 13:33:18;;;;;;;8.23;6.20;;;17.10;52.40;;;;;;5101976;28;20836;-89
2022/11/13 13:36:15;;;;;;;9.03;7.10;;;16.90;52.30;;;;;;5089291;28;20432;-91
2022/11/13 13:39:08;;;;;;;14.77;8.70;;;17.00;53.10;;;;;;5046855;28;20501;-89
2022/11/13 13:42:10;;;;;;;10.53;6.83;;;17.00;52.70;;;;;;5100328;28;20458;-89
2022/11/13 13:45:11;;;;;;;21.47;13.13;;;17.00;52.90;;;;;;5068796;28;20470;-90
2022/11/13 13:47:58;;;;;;;12.10;8.60;;;17.00;53.10;;;;;;5078840;28;20886;-88
2022/11/13 13:50:47;;;;;;;13.60;11.50;;;17.00;53.30;;;;;;5063984;28;20460;-90
2022/11/13 13:53:36;;;;;;;12.47;9.27;;;17.00;53.30;;;;;;5068408;28;20474;-89
2022/11/13 13:56:23;;;;;;;25.60;12.73;;;17.00;53.50;;;;;;5100716;28;20439;-89
2022/11/13 13:59:16;;;;;;;14.90;9.27;;;17.10;53.90;;;;;;5082990;28;20431;-89
2022/11/13 14:02:04;;;;;;;12.67;9.13;;;17.00;54.10;;;;;;5083617;28;20934;-90
2022/11/13 14:04:52;;;;;;;11.13;8.80;;;17.00;54.00;;;;;;5074893;28;20788;-90
2022/11/13 14:07:46;;;;;;;16.40;11.93;;;16.80;53.90;;;;;;5077729;28;20435;-90
2022/11/13 14:10:36;;;;;;;20.33;17.43;;;16.70;53.80;;;;;;5079906;28;20447;-91
2022/11/13 14:13:26;;;;;;;10.87;8.90;;;16.70;53.80;;;;;;5067447;28;20470;-90
2022/11/13 14:16:12;;;;;;;16.10;10.90;;;16.70;54.20;;;;;;5093273;28;20451;-91
2022/11/13 14:19:03;;;;;;;15.03;10.80;;;16.60;54.20;;;;;;5081210;28;20449;-91
2022/11/13 14:21:51;;;;;;;16.97;13.10;;;16.70;54.40;;;;;;5063430;28;20451;-91
2022/11/13 14:24:45;;;;;;;13.97;9.80;;;16.70;54.90;;;;;;5057155;28;20612;-90
2022/11/13 14:27:32;;;;;;;8.83;6.13;;;16.70;54.20;;;;;;5077117;28;20941;-90
2022/11/13 14:30:24;;;;;;;7.00;5.30;;;16.70;54.40;;;;;;5080266;28;20807;-91